sensor_id;sensor_type;location;lat;lon;timestamp;temperature;humidity
4518;DHT22;2271;49.464;11.070;2024-02-23T00:01:47;11.00;99.90
4518;DHT22;2271;49.464;11.070;2024-02-23T00:04:13;11.00;99.90
4518;DHT22;2271;49.464;11.070;2024-02-23T00:06:39;11.00;99.90
4518;DHT22;2271;49.464;11.070;2024-02-23T00:09:04;10.90;99.90
4518;DHT22;2271;49.464;11.070;2024-02-23T00:11:31;10.90;99.90
4518;DHT22;2271;49.464;11.070;2024-02-23T00:13:59;10.90;99.90
4518;DHT22;2271;49.464;11.070;2024-02-23T00:16:24;10.80;99.90
4518;DHT22;2271;49.464;11.070;2024-02-23T00:18:51;10.80;99.90
4518;DHT22;2271;49.464;11.070;2024-02-23T00:21:17;10.80;99.90
4518;DHT22;2271;49.464;11.070;2024-02-23T00:23:43;10.80;99.90
4518;DHT22;2271;49.464;11.070;2024-02-23T00:26:09;10.80;99.90
4518;DHT22;2271;49.464;11.070;2024-02-23T00:28:34;10.70;99.90
4518;DHT22;2271;49.464;11.070;2024-02-23T00:31:00;10.70;99.90
4518;DHT22;2271;49.464;11.070;2024-02-23T00:33:26;10.60;99.90
4518;DHT22;2271;49.464;11.070;2024-02-23T00:35:51;10.60;99.90
4518;DHT22;2271;49.464;11.070;2024-02-23T00:38:17;10.60;99.90
4518;DHT22;2271;49.464;11.070;2024-02-23T00:40:42;10.60;99.90
4518;DHT22;2271;49.464;11.070;2024-02-23T00:43:08;10.60;99.90
4518;DHT22;2271;49.464;11.070;2024-02-23T00:45:34;10.60;99.90
4518;DHT22;2271;49.464;11.070;2024-02-23T00:47:59;10.60;99.90
4518;DHT22;2271;49.464;11.070;2024-02-23T00:50:25;10.50;99.90
4518;DHT22;2271;49.464;11.070;2024-02-23T00:52:52;10.40;99.90
4518;DHT22;2271;49.464;11.070;2024-02-23T00:55:18;10.40;99.90
4518;DHT22;2271;49.464;11.070;2024-02-23T00:57:44;10.40;99.90
4518;DHT22;2271;49.464;11.070;2024-02-23T01:00:11;10.30;99.90
4518;DHT22;2271;49.464;11.070;2024-02-23T01:02:37;10.20;99.90
4518;DHT22;2271;49.464;11.070;2024-02-23T01:05:04;10.20;99.90
4518;DHT22;2271;49.464;11.070;2024-02-23T01:07:30;10.10;99.90
4518;DHT22;2271;49.464;11.070;2024-02-23T01:09:55;10.10;99.90
4518;DHT22;2271;49.464;11.070;2024-02-23T01:12:21;10.10;99.90
4518;DHT22;2271;49.464;11.070;2024-02-23T01:14:47;10.10;99.90
4518;DHT22;2271;49.464;11.070;2024-02-23T01:17:14;10.10;99.90
4518;DHT22;2271;49.464;11.070;2024-02-23T01:19:41;10.00;99.90
4518;DHT22;2271;49.464;11.070;2024-02-23T01:22:08;10.00;99.90
4518;DHT22;2271;49.464;11.070;2024-02-23T01:24:33;9.90;99.90
4518;DHT22;2271;49.464;11.070;2024-02-23T01:26:59;9.90;99.90
4518;DHT22;2271;49.464;11.070;2024-02-23T01:29:26;9.90;99.90
4518;DHT22;2271;49.464;11.070;2024-02-23T01:31:51;9.80;99.90
4518;DHT22;2271;49.464;11.070;2024-02-23T01:34:17;9.80;99.90
4518;DHT22;2271;49.464;11.070;2024-02-23T01:36:43;9.80;99.90
4518;DHT22;2271;49.464;11.070;2024-02-23T01:39:09;9.80;99.90
4518;DHT22;2271;49.464;11.070;2024-02-23T01:41:35;9.70;99.90
4518;DHT22;2271;49.464;11.070;2024-02-23T01:44:01;9.60;99.90
4518;DHT22;2271;49.464;11.070;2024-02-23T01:46:27;9.60;99.90
4518;DHT22;2271;49.464;11.070;2024-02-23T01:48:53;9.60;99.90
4518;DHT22;2271;49.464;11.070;2024-02-23T01:51:19;9.60;99.90
4518;DHT22;2271;49.464;11.070;2024-02-23T01:53:45;9.60;99.90
4518;DHT22;2271;49.464;11.070;2024-02-23T01:56:12;9.60;99.90
4518;DHT22;2271;49.464;11.070;2024-02-23T01:58:43;9.60;99.90
4518;DHT22;2271;49.464;11.070;2024-02-23T02:01:09;9.60;99.90
4518;DHT22;2271;49.464;11.070;2024-02-23T02:03:36;9.60;99.90
4518;DHT22;2271;49.464;11.070;2024-02-23T02:06:01;9.50;99.90
4518;DHT22;2271;49.464;11.070;2024-02-23T02:08:27;9.50;99.90
4518;DHT22;2271;49.464;11.070;2024-02-23T02:10:53;9.50;99.90
4518;DHT22;2271;49.464;11.070;2024-02-23T02:13:19;9.50;99.90
4518;DHT22;2271;49.464;11.070;2024-02-23T02:15:44;9.50;99.90
4518;DHT22;2271;49.464;11.070;2024-02-23T02:18:10;9.50;99.90
4518;DHT22;2271;49.464;11.070;2024-02-23T02:20:36;9.50;99.90
4518;DHT22;2271;49.464;11.070;2024-02-23T02:23:03;9.40;99.90
4518;DHT22;2271;49.464;11.070;2024-02-23T02:25:28;9.40;99.90
4518;DHT22;2271;49.464;11.070;2024-02-23T02:27:54;9.40;99.90
4518;DHT22;2271;49.464;11.070;2024-02-23T02:30:20;9.40;99.90
4518;DHT22;2271;49.464;11.070;2024-02-23T02:32:46;9.40;99.90
4518;DHT22;2271;49.464;11.070;2024-02-23T02:35:11;9.40;99.90
4518;DHT22;2271;49.464;11.070;2024-02-23T02:37:38;9.40;99.90
4518;DHT22;2271;49.464;11.070;2024-02-23T02:40:04;9.40;99.90
4518;DHT22;2271;49.464;11.070;2024-02-23T02:42:30;9.30;99.90
4518;DHT22;2271;49.464;11.070;2024-02-23T02:44:56;9.30;99.90
4518;DHT22;2271;49.464;11.070;2024-02-23T02:47:22;9.20;99.90
4518;DHT22;2271;49.464;11.070;2024-02-23T02:49:48;9.20;99.90
4518;DHT22;2271;49.464;11.070;2024-02-23T02:52:14;9.20;99.90
4518;DHT22;2271;49.464;11.070;2024-02-23T02:54:40;9.30;99.90
4518;DHT22;2271;49.464;11.070;2024-02-23T02:57:05;9.20;99.90
4518;DHT22;2271;49.464;11.070;2024-02-23T02:59:35;9.20;99.90
4518;DHT22;2271;49.464;11.070;2024-02-23T03:02:01;9.20;99.90
4518;DHT22;2271;49.464;11.070;2024-02-23T03:04:26;9.20;99.90
4518;DHT22;2271;49.464;11.070;2024-02-23T03:06:52;9.20;99.90
4518;DHT22;2271;49.464;11.070;2024-02-23T03:09:18;9.10;99.90
4518;DHT22;2271;49.464;11.070;2024-02-23T03:11:43;9.10;99.90
4518;DHT22;2271;49.464;11.070;2024-02-23T03:14:09;9.10;99.90
4518;DHT22;2271;49.464;11.070;2024-02-23T03:16:35;9.20;99.90
4518;DHT22;2271;49.464;11.070;2024-02-23T03:19:02;9.10;99.90
4518;DHT22;2271;49.464;11.070;2024-02-23T03:21:28;9.10;99.90
4518;DHT22;2271;49.464;11.070;2024-02-23T03:23:54;9.10;99.90
4518;DHT22;2271;49.464;11.070;2024-02-23T03:26:19;9.10;99.90
4518;DHT22;2271;49.464;11.070;2024-02-23T03:28:45;9.10;99.90
4518;DHT22;2271;49.464;11.070;2024-02-23T03:31:11;9.00;99.90
4518;DHT22;2271;49.464;11.070;2024-02-23T03:33:37;9.00;99.90
4518;DHT22;2271;49.464;11.070;2024-02-23T03:36:03;9.00;99.90
4518;DHT22;2271;49.464;11.070;2024-02-23T03:38:29;9.00;99.90
4518;DHT22;2271;49.464;11.070;2024-02-23T03:40:55;9.00;99.90
4518;DHT22;2271;49.464;11.070;2024-02-23T03:43:21;8.80;99.90
4518;DHT22;2271;49.464;11.070;2024-02-23T03:45:47;8.90;99.90
4518;DHT22;2271;49.464;11.070;2024-02-23T03:48:13;8.90;99.90
4518;DHT22;2271;49.464;11.070;2024-02-23T03:50:38;8.90;99.90
4518;DHT22;2271;49.464;11.070;2024-02-23T03:53:04;8.90;99.90
4518;DHT22;2271;49.464;11.070;2024-02-23T03:55:30;8.90;99.90
4518;DHT22;2271;49.464;11.070;2024-02-23T03:57:55;8.90;99.90
4518;DHT22;2271;49.464;11.070;2024-02-23T04:00:21;9.00;99.90
4518;DHT22;2271;49.464;11.070;2024-02-23T04:02:48;8.90;99.90
4518;DHT22;2271;49.464;11.070;2024-02-23T04:05:14;8.90;99.90
4518;DHT22;2271;49.464;11.070;2024-02-23T04:07:40;8.80;99.90
4518;DHT22;2271;49.464;11.070;2024-02-23T04:10:06;8.90;99.90
4518;DHT22;2271;49.464;11.070;2024-02-23T04:12:32;8.80;99.90
4518;DHT22;2271;49.464;11.070;2024-02-23T04:14:58;8.80;99.90
4518;DHT22;2271;49.464;11.070;2024-02-23T04:17:23;8.80;99.90
4518;DHT22;2271;49.464;11.070;2024-02-23T04:19:49;8.80;99.90
4518;DHT22;2271;49.464;11.070;2024-02-23T04:22:14;8.80;99.90
4518;DHT22;2271;49.464;11.070;2024-02-23T04:24:41;8.80;99.90
4518;DHT22;2271;49.464;11.070;2024-02-23T04:27:07;8.80;99.90
4518;DHT22;2271;49.464;11.070;2024-02-23T04:29:33;8.80;99.90
4518;DHT22;2271;49.464;11.070;2024-02-23T04:32:00;8.70;99.90
4518;DHT22;2271;49.464;11.070;2024-02-23T04:34:25;8.80;99.90
4518;DHT22;2271;49.464;11.070;2024-02-23T04:36:51;8.80;99.90
4518;DHT22;2271;49.464;11.070;2024-02-23T04:39:17;8.80;99.90
4518;DHT22;2271;49.464;11.070;2024-02-23T04:41:42;8.80;99.90
4518;DHT22;2271;49.464;11.070;2024-02-23T04:44:08;8.80;99.90
4518;DHT22;2271;49.464;11.070;2024-02-23T04:46:34;8.80;99.90
4518;DHT22;2271;49.464;11.070;2024-02-23T04:49:00;8.80;99.90
4518;DHT22;2271;49.464;11.070;2024-02-23T04:51:26;8.70;99.90
4518;DHT22;2271;49.464;11.070;2024-02-23T04:53:52;8.70;99.90
4518;DHT22;2271;49.464;11.070;2024-02-23T04:56:18;8.70;99.90
4518;DHT22;2271;49.464;11.070;2024-02-23T04:58:44;8.70;99.90
4518;DHT22;2271;49.464;11.070;2024-02-23T05:01:09;8.70;99.90
4518;DHT22;2271;49.464;11.070;2024-02-23T05:03:36;8.80;99.90
4518;DHT22;2271;49.464;11.070;2024-02-23T05:06:03;8.80;99.90
4518;DHT22;2271;49.464;11.070;2024-02-23T05:08:28;8.80;99.90
4518;DHT22;2271;49.464;11.070;2024-02-23T05:10:59;8.80;99.90
4518;DHT22;2271;49.464;11.070;2024-02-23T05:13:24;8.80;99.90
4518;DHT22;2271;49.464;11.070;2024-02-23T05:15:50;8.80;99.90
4518;DHT22;2271;49.464;11.070;2024-02-23T05:18:16;8.80;99.90
4518;DHT22;2271;49.464;11.070;2024-02-23T05:20:42;8.70;99.90
4518;DHT22;2271;49.464;11.070;2024-02-23T05:23:08;8.70;99.90
4518;DHT22;2271;49.464;11.070;2024-02-23T05:25:34;8.70;99.90
4518;DHT22;2271;49.464;11.070;2024-02-23T05:27:59;8.70;99.90
4518;DHT22;2271;49.464;11.070;2024-02-23T05:30:25;8.70;99.90
4518;DHT22;2271;49.464;11.070;2024-02-23T05:32:52;8.70;99.90
4518;DHT22;2271;49.464;11.070;2024-02-23T05:35:18;8.70;99.90
4518;DHT22;2271;49.464;11.070;2024-02-23T05:37:44;8.70;99.90
4518;DHT22;2271;49.464;11.070;2024-02-23T05:40:10;8.70;99.90
4518;DHT22;2271;49.464;11.070;2024-02-23T05:42:36;8.70;99.90
4518;DHT22;2271;49.464;11.070;2024-02-23T05:45:02;8.70;99.90
4518;DHT22;2271;49.464;11.070;2024-02-23T05:47:30;8.60;99.90
4518;DHT22;2271;49.464;11.070;2024-02-23T05:49:56;8.60;99.90
4518;DHT22;2271;49.464;11.070;2024-02-23T05:52:21;8.60;99.90
4518;DHT22;2271;49.464;11.070;2024-02-23T05:54:47;8.60;99.90
4518;DHT22;2271;49.464;11.070;2024-02-23T05:57:13;8.50;99.90
4518;DHT22;2271;49.464;11.070;2024-02-23T05:59:39;8.50;99.90
4518;DHT22;2271;49.464;11.070;2024-02-23T06:02:07;8.50;99.90
4518;DHT22;2271;49.464;11.070;2024-02-23T06:04:33;8.50;99.90
4518;DHT22;2271;49.464;11.070;2024-02-23T06:06:59;8.50;99.90
4518;DHT22;2271;49.464;11.070;2024-02-23T06:09:25;8.50;99.90
4518;DHT22;2271;49.464;11.070;2024-02-23T06:11:50;8.50;99.90
4518;DHT22;2271;49.464;11.070;2024-02-23T06:14:16;8.40;99.90
4518;DHT22;2271;49.464;11.070;2024-02-23T06:16:42;8.40;99.90
4518;DHT22;2271;49.464;11.070;2024-02-23T06:19:08;8.40;99.90
4518;DHT22;2271;49.464;11.070;2024-02-23T06:21:34;8.40;99.90
4518;DHT22;2271;49.464;11.070;2024-02-23T06:23:59;8.40;99.90
4518;DHT22;2271;49.464;11.070;2024-02-23T06:26:25;8.40;99.90
4518;DHT22;2271;49.464;11.070;2024-02-23T06:28:51;8.40;99.90
4518;DHT22;2271;49.464;11.070;2024-02-23T06:31:16;8.40;99.90
4518;DHT22;2271;49.464;11.070;2024-02-23T06:33:42;8.40;99.90
4518;DHT22;2271;49.464;11.070;2024-02-23T06:36:09;8.40;99.90
4518;DHT22;2271;49.464;11.070;2024-02-23T06:38:35;8.40;99.90
4518;DHT22;2271;49.464;11.070;2024-02-23T06:41:01;8.50;99.90
4518;DHT22;2271;49.464;11.070;2024-02-23T06:43:26;8.50;99.90
4518;DHT22;2271;49.464;11.070;2024-02-23T06:45:52;8.50;99.90
4518;DHT22;2271;49.464;11.070;2024-02-23T06:48:18;8.50;99.90
4518;DHT22;2271;49.464;11.070;2024-02-23T06:50:43;8.60;99.90
4518;DHT22;2271;49.464;11.070;2024-02-23T06:53:09;8.60;99.90
4518;DHT22;2271;49.464;11.070;2024-02-23T06:55:35;8.70;99.90
4518;DHT22;2271;49.464;11.070;2024-02-23T06:58:01;8.60;99.90
4518;DHT22;2271;49.464;11.070;2024-02-23T07:00:27;8.50;99.90
4518;DHT22;2271;49.464;11.070;2024-02-23T07:02:53;8.50;99.90
4518;DHT22;2271;49.464;11.070;2024-02-23T07:05:19;8.50;99.90
4518;DHT22;2271;49.464;11.070;2024-02-23T07:07:45;8.40;99.90
4518;DHT22;2271;49.464;11.070;2024-02-23T07:10:11;8.40;99.90
4518;DHT22;2271;49.464;11.070;2024-02-23T07:12:37;8.40;99.90
4518;DHT22;2271;49.464;11.070;2024-02-23T07:15:03;8.40;99.90
4518;DHT22;2271;49.464;11.070;2024-02-23T07:17:29;8.40;99.90
4518;DHT22;2271;49.464;11.070;2024-02-23T07:19:54;8.40;99.90
4518;DHT22;2271;49.464;11.070;2024-02-23T07:22:28;8.40;99.90
4518;DHT22;2271;49.464;11.070;2024-02-23T07:24:53;8.40;99.90
4518;DHT22;2271;49.464;11.070;2024-02-23T07:27:19;8.50;99.90
4518;DHT22;2271;49.464;11.070;2024-02-23T07:29:45;8.50;99.90
4518;DHT22;2271;49.464;11.070;2024-02-23T07:32:11;8.50;99.90
4518;DHT22;2271;49.464;11.070;2024-02-23T07:34:36;8.50;99.90
4518;DHT22;2271;49.464;11.070;2024-02-23T07:37:02;8.50;99.90
4518;DHT22;2271;49.464;11.070;2024-02-23T07:39:28;8.50;99.90
4518;DHT22;2271;49.464;11.070;2024-02-23T07:41:54;8.60;99.90
4518;DHT22;2271;49.464;11.070;2024-02-23T07:44:20;8.60;99.90
4518;DHT22;2271;49.464;11.070;2024-02-23T07:46:46;8.50;99.90
4518;DHT22;2271;49.464;11.070;2024-02-23T07:49:11;8.50;99.90
4518;DHT22;2271;49.464;11.070;2024-02-23T07:51:37;8.50;99.90
4518;DHT22;2271;49.464;11.070;2024-02-23T07:54:02;8.50;99.90
4518;DHT22;2271;49.464;11.070;2024-02-23T07:56:28;8.50;99.90
4518;DHT22;2271;49.464;11.070;2024-02-23T07:58:56;8.50;99.90
4518;DHT22;2271;49.464;11.070;2024-02-23T08:01:22;8.50;99.90
4518;DHT22;2271;49.464;11.070;2024-02-23T08:03:47;8.50;99.90
4518;DHT22;2271;49.464;11.070;2024-02-23T08:06:13;8.50;99.90
4518;DHT22;2271;49.464;11.070;2024-02-23T08:08:41;8.50;99.90
4518;DHT22;2271;49.464;11.070;2024-02-23T08:11:07;8.50;99.90
4518;DHT22;2271;49.464;11.070;2024-02-23T08:13:33;8.40;99.90
4518;DHT22;2271;49.464;11.070;2024-02-23T08:15:58;8.40;99.90
4518;DHT22;2271;49.464;11.070;2024-02-23T08:18:24;8.40;99.90
4518;DHT22;2271;49.464;11.070;2024-02-23T08:20:50;8.50;99.90
4518;DHT22;2271;49.464;11.070;2024-02-23T08:23:16;8.50;99.90
4518;DHT22;2271;49.464;11.070;2024-02-23T08:25:44;8.50;99.90
4518;DHT22;2271;49.464;11.070;2024-02-23T08:28:10;8.50;99.90
4518;DHT22;2271;49.464;11.070;2024-02-23T08:30:35;8.60;99.90
4518;DHT22;2271;49.464;11.070;2024-02-23T08:33:01;8.60;99.90
4518;DHT22;2271;49.464;11.070;2024-02-23T08:35:26;8.70;99.90
4518;DHT22;2271;49.464;11.070;2024-02-23T08:37:52;8.70;99.90
4518;DHT22;2271;49.464;11.070;2024-02-23T08:40:18;8.70;99.90
4518;DHT22;2271;49.464;11.070;2024-02-23T08:42:43;8.70;99.90
4518;DHT22;2271;49.464;11.070;2024-02-23T08:45:09;8.60;99.90
4518;DHT22;2271;49.464;11.070;2024-02-23T08:47:37;8.60;99.90
4518;DHT22;2271;49.464;11.070;2024-02-23T08:50:03;8.60;99.90
4518;DHT22;2271;49.464;11.070;2024-02-23T08:52:29;8.50;99.90
4518;DHT22;2271;49.464;11.070;2024-02-23T08:54:55;8.40;99.90
4518;DHT22;2271;49.464;11.070;2024-02-23T08:57:21;8.40;99.90
4518;DHT22;2271;49.464;11.070;2024-02-23T08:59:51;8.40;99.90
4518;DHT22;2271;49.464;11.070;2024-02-23T09:02:17;8.50;99.90
4518;DHT22;2271;49.464;11.070;2024-02-23T09:04:44;8.50;99.90
4518;DHT22;2271;49.464;11.070;2024-02-23T09:07:12;8.60;99.90
4518;DHT22;2271;49.464;11.070;2024-02-23T09:09:38;8.60;99.90
4518;DHT22;2271;49.464;11.070;2024-02-23T09:12:04;8.60;99.90
4518;DHT22;2271;49.464;11.070;2024-02-23T09:14:32;8.60;99.90
4518;DHT22;2271;49.464;11.070;2024-02-23T09:16:58;8.60;99.90
4518;DHT22;2271;49.464;11.070;2024-02-23T09:19:24;8.60;99.90
4518;DHT22;2271;49.464;11.070;2024-02-23T09:21:49;8.60;99.90
4518;DHT22;2271;49.464;11.070;2024-02-23T09:24:15;8.60;99.90
4518;DHT22;2271;49.464;11.070;2024-02-23T09:26:41;8.60;99.90
4518;DHT22;2271;49.464;11.070;2024-02-23T09:29:07;8.60;99.90
4518;DHT22;2271;49.464;11.070;2024-02-23T09:31:33;8.60;99.90
4518;DHT22;2271;49.464;11.070;2024-02-23T09:33:59;8.60;99.90
4518;DHT22;2271;49.464;11.070;2024-02-23T09:36:24;8.60;99.90
4518;DHT22;2271;49.464;11.070;2024-02-23T09:38:50;8.60;99.90
4518;DHT22;2271;49.464;11.070;2024-02-23T09:41:20;8.70;99.90
4518;DHT22;2271;49.464;11.070;2024-02-23T09:43:47;8.70;99.90
4518;DHT22;2271;49.464;11.070;2024-02-23T09:46:16;8.70;99.90
4518;DHT22;2271;49.464;11.070;2024-02-23T09:48:44;8.70;99.90
4518;DHT22;2271;49.464;11.070;2024-02-23T09:51:12;8.80;99.90
4518;DHT22;2271;49.464;11.070;2024-02-23T09:53:39;8.80;99.90
4518;DHT22;2271;49.464;11.070;2024-02-23T09:56:05;8.80;99.90
4518;DHT22;2271;49.464;11.070;2024-02-23T09:58:34;8.80;99.90
4518;DHT22;2271;49.464;11.070;2024-02-23T10:01:02;8.80;99.90
4518;DHT22;2271;49.464;11.070;2024-02-23T10:03:29;8.70;99.90
4518;DHT22;2271;49.464;11.070;2024-02-23T10:05:58;8.70;99.90
4518;DHT22;2271;49.464;11.070;2024-02-23T10:08:23;8.70;99.90
4518;DHT22;2271;49.464;11.070;2024-02-23T10:10:49;8.70;99.90
4518;DHT22;2271;49.464;11.070;2024-02-23T10:13:19;8.80;99.90
4518;DHT22;2271;49.464;11.070;2024-02-23T10:15:52;8.80;99.90
4518;DHT22;2271;49.464;11.070;2024-02-23T10:18:19;8.80;99.90
4518;DHT22;2271;49.464;11.070;2024-02-23T10:20:48;8.80;99.90
4518;DHT22;2271;49.464;11.070;2024-02-23T10:23:15;8.80;99.90
4518;DHT22;2271;49.464;11.070;2024-02-23T10:25:41;8.80;99.90
4518;DHT22;2271;49.464;11.070;2024-02-23T10:28:07;8.80;99.90
4518;DHT22;2271;49.464;11.070;2024-02-23T10:30:33;8.80;99.90
4518;DHT22;2271;49.464;11.070;2024-02-23T10:32:59;8.90;99.90
4518;DHT22;2271;49.464;11.070;2024-02-23T10:35:26;8.90;99.90
4518;DHT22;2271;49.464;11.070;2024-02-23T10:37:53;8.90;99.90
4518;DHT22;2271;49.464;11.070;2024-02-23T10:40:21;8.90;99.90
4518;DHT22;2271;49.464;11.070;2024-02-23T10:42:52;8.90;99.90
4518;DHT22;2271;49.464;11.070;2024-02-23T10:45:22;8.90;99.90
4518;DHT22;2271;49.464;11.070;2024-02-23T10:47:48;8.90;99.90
4518;DHT22;2271;49.464;11.070;2024-02-23T10:50:16;8.80;99.90
4518;DHT22;2271;49.464;11.070;2024-02-23T10:52:42;8.80;99.90
4518;DHT22;2271;49.464;11.070;2024-02-23T10:55:08;8.80;99.90
4518;DHT22;2271;49.464;11.070;2024-02-23T10:57:35;8.90;99.90
4518;DHT22;2271;49.464;11.070;2024-02-23T11:00:02;8.80;99.90
4518;DHT22;2271;49.464;11.070;2024-02-23T11:02:32;8.80;99.90
4518;DHT22;2271;49.464;11.070;2024-02-23T11:04:59;8.80;99.90
4518;DHT22;2271;49.464;11.070;2024-02-23T11:07:25;8.80;99.90
4518;DHT22;2271;49.464;11.070;2024-02-23T11:10:00;8.90;99.90
4518;DHT22;2271;49.464;11.070;2024-02-23T11:12:29;8.90;99.90
4518;DHT22;2271;49.464;11.070;2024-02-23T11:14:59;8.90;99.90
4518;DHT22;2271;49.464;11.070;2024-02-23T11:17:32;8.90;99.90
4518;DHT22;2271;49.464;11.070;2024-02-23T11:19:58;8.90;99.90
4518;DHT22;2271;49.464;11.070;2024-02-23T11:22:34;8.90;99.90
4518;DHT22;2271;49.464;11.070;2024-02-23T11:25:07;9.00;99.90
4518;DHT22;2271;49.464;11.070;2024-02-23T11:27:37;9.00;99.90
4518;DHT22;2271;49.464;11.070;2024-02-23T11:30:08;9.00;99.90
4518;DHT22;2271;49.464;11.070;2024-02-23T11:32:44;9.00;99.90
4518;DHT22;2271;49.464;11.070;2024-02-23T11:35:13;9.00;99.90
4518;DHT22;2271;49.464;11.070;2024-02-23T11:37:57;9.00;99.90
4518;DHT22;2271;49.464;11.070;2024-02-23T11:40:27;9.10;99.90
4518;DHT22;2271;49.464;11.070;2024-02-23T11:42:55;9.10;99.90
4518;DHT22;2271;49.464;11.070;2024-02-23T11:45:21;9.20;99.90
4518;DHT22;2271;49.464;11.070;2024-02-23T11:47:47;9.10;99.90
4518;DHT22;2271;49.464;11.070;2024-02-23T11:50:13;9.20;99.90
4518;DHT22;2271;49.464;11.070;2024-02-23T11:52:40;9.20;99.90
4518;DHT22;2271;49.464;11.070;2024-02-23T11:55:06;9.10;99.90
4518;DHT22;2271;49.464;11.070;2024-02-23T11:57:34;9.10;99.90
4518;DHT22;2271;49.464;11.070;2024-02-23T12:00:03;9.10;99.90
4518;DHT22;2271;49.464;11.070;2024-02-23T12:02:29;9.10;99.90
4518;DHT22;2271;49.464;11.070;2024-02-23T12:04:54;9.20;99.90
4518;DHT22;2271;49.464;11.070;2024-02-23T12:07:20;9.10;99.90
4518;DHT22;2271;49.464;11.070;2024-02-23T12:09:47;9.00;99.90
4518;DHT22;2271;49.464;11.070;2024-02-23T12:12:13;8.80;99.90
4518;DHT22;2271;49.464;11.070;2024-02-23T12:14:40;8.80;99.90
4518;DHT22;2271;49.464;11.070;2024-02-23T12:17:08;8.80;99.90
4518;DHT22;2271;49.464;11.070;2024-02-23T12:19:40;8.90;99.90
4518;DHT22;2271;49.464;11.070;2024-02-23T12:22:06;9.00;99.90
4518;DHT22;2271;49.464;11.070;2024-02-23T12:24:32;8.90;99.90
4518;DHT22;2271;49.464;11.070;2024-02-23T12:26:59;8.60;99.90
4518;DHT22;2271;49.464;11.070;2024-02-23T12:29:25;8.60;99.90
4518;DHT22;2271;49.464;11.070;2024-02-23T12:31:50;8.70;99.90
4518;DHT22;2271;49.464;11.070;2024-02-23T12:34:18;8.70;99.90
4518;DHT22;2271;49.464;11.070;2024-02-23T12:36:46;8.60;99.90
4518;DHT22;2271;49.464;11.070;2024-02-23T12:39:11;8.70;99.90
4518;DHT22;2271;49.464;11.070;2024-02-23T12:41:37;8.80;99.90
4518;DHT22;2271;49.464;11.070;2024-02-23T12:44:03;8.90;99.90
4518;DHT22;2271;49.464;11.070;2024-02-23T12:46:28;9.00;99.90
4518;DHT22;2271;49.464;11.070;2024-02-23T12:48:54;9.00;99.90
4518;DHT22;2271;49.464;11.070;2024-02-23T12:51:25;9.10;99.90
4518;DHT22;2271;49.464;11.070;2024-02-23T12:53:51;9.10;99.90
4518;DHT22;2271;49.464;11.070;2024-02-23T12:56:16;9.10;99.90
4518;DHT22;2271;49.464;11.070;2024-02-23T12:58:44;9.10;99.90
4518;DHT22;2271;49.464;11.070;2024-02-23T13:01:10;9.10;99.90
4518;DHT22;2271;49.464;11.070;2024-02-23T13:03:38;9.10;99.90
4518;DHT22;2271;49.464;11.070;2024-02-23T13:06:04;9.10;99.90
4518;DHT22;2271;49.464;11.070;2024-02-23T13:08:30;9.10;99.90
4518;DHT22;2271;49.464;11.070;2024-02-23T13:10:56;9.10;99.90
4518;DHT22;2271;49.464;11.070;2024-02-23T13:13:23;9.20;99.90
4518;DHT22;2271;49.464;11.070;2024-02-23T13:15:50;9.20;99.90
4518;DHT22;2271;49.464;11.070;2024-02-23T13:18:15;9.20;99.90
4518;DHT22;2271;49.464;11.070;2024-02-23T13:20:41;9.20;99.90
4518;DHT22;2271;49.464;11.070;2024-02-23T13:23:08;9.20;99.90
4518;DHT22;2271;49.464;11.070;2024-02-23T13:25:37;9.30;99.90
4518;DHT22;2271;49.464;11.070;2024-02-23T13:28:04;9.30;99.90
4518;DHT22;2271;49.464;11.070;2024-02-23T13:30:33;9.20;99.90
4518;DHT22;2271;49.464;11.070;2024-02-23T13:32:59;9.30;99.90
4518;DHT22;2271;49.464;11.070;2024-02-23T13:35:25;9.20;99.90
4518;DHT22;2271;49.464;11.070;2024-02-23T13:37:51;9.30;99.90
4518;DHT22;2271;49.464;11.070;2024-02-23T13:40:17;9.30;99.90
4518;DHT22;2271;49.464;11.070;2024-02-23T13:42:43;9.30;99.90
4518;DHT22;2271;49.464;11.070;2024-02-23T13:45:11;9.20;99.90
4518;DHT22;2271;49.464;11.070;2024-02-23T13:47:39;9.20;99.90
4518;DHT22;2271;49.464;11.070;2024-02-23T13:50:05;9.20;99.90
4518;DHT22;2271;49.464;11.070;2024-02-23T13:52:31;9.30;99.90
4518;DHT22;2271;49.464;11.070;2024-02-23T13:54:57;9.40;99.90
4518;DHT22;2271;49.464;11.070;2024-02-23T13:57:23;10.20;99.90
4518;DHT22;2271;49.464;11.070;2024-02-23T13:59:48;10.50;99.90
4518;DHT22;2271;49.464;11.070;2024-02-23T14:02:14;10.60;99.90
4518;DHT22;2271;49.464;11.070;2024-02-23T14:04:40;10.50;99.90
4518;DHT22;2271;49.464;11.070;2024-02-23T14:07:07;10.20;99.90
4518;DHT22;2271;49.464;11.070;2024-02-23T14:09:33;10.00;99.90
4518;DHT22;2271;49.464;11.070;2024-02-23T14:11:59;9.80;99.90
4518;DHT22;2271;49.464;11.070;2024-02-23T14:14:25;9.70;99.90
4518;DHT22;2271;49.464;11.070;2024-02-23T14:16:52;9.60;99.90
4518;DHT22;2271;49.464;11.070;2024-02-23T14:19:17;9.50;99.90
4518;DHT22;2271;49.464;11.070;2024-02-23T14:21:44;9.50;99.90
4518;DHT22;2271;49.464;11.070;2024-02-23T14:24:10;9.40;99.90
4518;DHT22;2271;49.464;11.070;2024-02-23T14:26:35;9.40;99.90
4518;DHT22;2271;49.464;11.070;2024-02-23T14:29:01;9.30;99.90
4518;DHT22;2271;49.464;11.070;2024-02-23T14:31:27;9.30;99.90
4518;DHT22;2271;49.464;11.070;2024-02-23T14:33:53;9.30;99.90
4518;DHT22;2271;49.464;11.070;2024-02-23T14:36:19;9.30;99.90
4518;DHT22;2271;49.464;11.070;2024-02-23T14:38:44;9.30;99.90
4518;DHT22;2271;49.464;11.070;2024-02-23T14:41:10;9.30;99.90
4518;DHT22;2271;49.464;11.070;2024-02-23T14:43:36;9.20;99.90
4518;DHT22;2271;49.464;11.070;2024-02-23T14:46:02;9.30;99.90
4518;DHT22;2271;49.464;11.070;2024-02-23T14:48:28;9.30;99.90
4518;DHT22;2271;49.464;11.070;2024-02-23T14:50:54;9.30;99.90
4518;DHT22;2271;49.464;11.070;2024-02-23T14:53:19;9.30;99.90
4518;DHT22;2271;49.464;11.070;2024-02-23T14:55:45;9.30;99.90
4518;DHT22;2271;49.464;11.070;2024-02-23T14:58:12;9.30;99.90
4518;DHT22;2271;49.464;11.070;2024-02-23T15:00:37;9.30;99.90
4518;DHT22;2271;49.464;11.070;2024-02-23T15:03:04;9.30;99.90
4518;DHT22;2271;49.464;11.070;2024-02-23T15:05:30;9.20;99.90
4518;DHT22;2271;49.464;11.070;2024-02-23T15:07:55;9.20;99.90
4518;DHT22;2271;49.464;11.070;2024-02-23T15:10:21;9.10;99.90
4518;DHT22;2271;49.464;11.070;2024-02-23T15:12:47;9.20;99.90
4518;DHT22;2271;49.464;11.070;2024-02-23T15:15:12;9.10;99.90
4518;DHT22;2271;49.464;11.070;2024-02-23T15:17:39;9.10;99.90
4518;DHT22;2271;49.464;11.070;2024-02-23T15:20:08;9.10;99.90
4518;DHT22;2271;49.464;11.070;2024-02-23T15:22:34;9.10;99.90
4518;DHT22;2271;49.464;11.070;2024-02-23T15:25:00;9.10;99.90
4518;DHT22;2271;49.464;11.070;2024-02-23T15:27:25;9.10;99.90
4518;DHT22;2271;49.464;11.070;2024-02-23T15:29:51;9.10;99.90
4518;DHT22;2271;49.464;11.070;2024-02-23T15:32:17;9.10;99.90
4518;DHT22;2271;49.464;11.070;2024-02-23T15:34:42;9.00;99.90
4518;DHT22;2271;49.464;11.070;2024-02-23T15:37:08;8.90;99.90
4518;DHT22;2271;49.464;11.070;2024-02-23T15:39:34;8.80;99.90
4518;DHT22;2271;49.464;11.070;2024-02-23T15:41:59;8.80;99.90
4518;DHT22;2271;49.464;11.070;2024-02-23T15:44:25;8.70;99.90
4518;DHT22;2271;49.464;11.070;2024-02-23T15:46:50;8.60;99.90
4518;DHT22;2271;49.464;11.070;2024-02-23T15:49:16;8.40;99.90
4518;DHT22;2271;49.464;11.070;2024-02-23T15:51:44;8.40;99.90
4518;DHT22;2271;49.464;11.070;2024-02-23T15:54:10;8.40;99.90